createdAt,value
2023-05-05T00:01:08.526Z,12.57
2023-05-05T00:03:35.653Z,12.54
2023-05-05T00:06:02.756Z,12.44
2023-05-05T00:08:29.253Z,12.41
2023-05-05T00:10:56.525Z,12.42
2023-05-05T00:13:23.514Z,12.51
2023-05-05T00:15:52.378Z,12.49
2023-05-05T00:18:19.804Z,12.47
2023-05-05T00:20:47.332Z,12.32
2023-05-05T00:23:14.839Z,12.30
2023-05-05T00:25:41.579Z,12.18
2023-05-05T00:28:08.103Z,12.22
2023-05-05T00:30:37.253Z,12.17
2023-05-05T00:33:03.873Z,12.05
2023-05-05T00:35:30.394Z,11.90
2023-05-05T00:37:56.878Z,11.84
2023-05-05T00:40:23.518Z,11.79
2023-05-05T00:42:52.566Z,11.77
2023-05-05T00:45:19.985Z,11.79
2023-05-05T00:47:49.183Z,11.83
2023-05-05T00:50:25.898Z,11.81
2023-05-05T00:53:10.576Z,11.78
2023-05-05T00:55:37.132Z,11.81
2023-05-05T00:58:06.457Z,11.79
2023-05-05T01:00:33.356Z,11.75
2023-05-05T01:02:59.958Z,11.69
2023-05-05T01:05:38.419Z,11.75
2023-05-05T01:08:07.900Z,11.78
2023-05-05T01:10:59.232Z,11.76
2023-05-05T01:13:42.604Z,11.68
2023-05-05T01:16:18.335Z,11.60
2023-05-05T01:19:03.014Z,11.58
2023-05-05T01:21:36.105Z,11.50
2023-05-05T01:24:11.623Z,11.39
2023-05-05T01:27:09.413Z,11.27
2023-05-05T01:30:00.896Z,11.30
2023-05-05T01:32:29.954Z,11.22
2023-05-05T01:35:01.952Z,11.19
2023-05-05T01:37:54.286Z,11.24
2023-05-05T01:40:25.969Z,11.37
2023-05-05T01:42:54.173Z,11.39
2023-05-05T01:45:24.797Z,11.42
2023-05-05T01:47:53.497Z,11.44
2023-05-05T01:50:21.295Z,11.39
2023-05-05T01:52:48.768Z,11.29
2023-05-05T01:55:18.286Z,11.34
2023-05-05T01:57:47.138Z,11.31
2023-05-05T02:00:15.458Z,11.22
2023-05-05T02:02:45.074Z,11.13
2023-05-05T02:05:13.070Z,11.02
2023-05-05T02:07:39.817Z,11.04
2023-05-05T02:10:08.229Z,11.08
2023-05-05T02:12:37.069Z,11.12
2023-05-05T02:15:05.368Z,11.11
2023-05-05T02:17:32.707Z,11.11
2023-05-05T02:20:02.007Z,11.10
2023-05-05T02:22:28.770Z,11.07
2023-05-05T02:24:55.420Z,11.02
2023-05-05T02:27:23.887Z,11.16
2023-05-05T02:29:58.555Z,11.34
2023-05-05T02:32:33.981Z,11.55
2023-05-05T02:35:15.475Z,11.78
2023-05-05T02:37:49.035Z,11.88
2023-05-05T02:40:22.372Z,11.92
2023-05-05T02:42:51.322Z,12.04
2023-05-05T02:45:21.479Z,12.09
2023-05-05T02:47:49.478Z,12.06
2023-05-05T02:50:16.186Z,12.02
2023-05-05T02:52:51.864Z,12.00
2023-05-05T02:55:20.166Z,12.03
2023-05-05T02:57:52.773Z,12.00
2023-05-05T03:00:23.976Z,12.04
2023-05-05T03:03:16.286Z,12.10
2023-05-05T03:06:07.324Z,12.19
2023-05-05T03:08:44.385Z,12.36
2023-05-05T03:11:32.106Z,12.53
2023-05-05T03:14:21.006Z,12.64
2023-05-05T03:16:49.847Z,12.79
2023-05-05T03:19:19.319Z,12.83
2023-05-05T03:21:48.594Z,12.88
2023-05-05T03:24:17.160Z,12.92
2023-05-05T03:26:49.931Z,13.03
2023-05-05T03:29:19.758Z,13.00
2023-05-05T03:31:46.389Z,13.00
2023-05-05T03:34:13.581Z,13.02
2023-05-05T03:36:45.718Z,12.97
2023-05-05T03:39:14.623Z,12.92
2023-05-05T03:41:41.297Z,12.90
2023-05-05T03:44:09.614Z,12.87
2023-05-05T03:46:36.908Z,12.86
2023-05-05T03:49:05.133Z,12.86
2023-05-05T03:51:32.590Z,12.85
2023-05-05T03:53:59.665Z,12.96
2023-05-05T03:56:26.771Z,13.06
2023-05-05T03:58:53.246Z,13.01
2023-05-05T04:01:19.748Z,13.06
2023-05-05T04:03:46.465Z,13.09
2023-05-05T04:06:13.070Z,13.13
2023-05-05T04:08:39.530Z,13.13
2023-05-05T04:11:05.978Z,13.13
2023-05-05T04:13:34.041Z,13.13
2023-05-05T04:16:01.928Z,13.20
2023-05-05T04:18:28.962Z,13.25
2023-05-05T04:20:55.450Z,13.27
2023-05-05T04:23:22.635Z,13.27
2023-05-05T04:25:49.802Z,13.27
2023-05-05T04:28:16.355Z,13.33
2023-05-05T04:30:42.786Z,13.34
2023-05-05T04:33:09.331Z,13.36
2023-05-05T04:35:35.872Z,13.39
2023-05-05T04:38:02.388Z,13.43
2023-05-05T04:40:28.908Z,13.49
2023-05-05T04:42:57.098Z,13.59
2023-05-05T04:45:23.757Z,13.62
2023-05-05T04:47:50.393Z,13.65
2023-05-05T04:50:16.908Z,13.70
2023-05-05T04:52:43.383Z,13.68
2023-05-05T04:55:10.636Z,13.77
2023-05-05T04:57:37.270Z,13.82
2023-05-05T05:00:05.244Z,13.79
2023-05-05T05:02:32.261Z,13.76
2023-05-05T05:04:58.735Z,13.71
2023-05-05T05:07:26.001Z,13.82
2023-05-05T05:09:52.549Z,13.88
2023-05-05T05:12:19.263Z,14.00
2023-05-05T05:14:45.855Z,14.13
2023-05-05T05:17:12.418Z,14.31
2023-05-05T05:19:39.172Z,14.55
2023-05-05T05:22:05.726Z,14.88
2023-05-05T05:24:36.403Z,15.26
2023-05-05T05:27:03.168Z,15.54
2023-05-05T05:29:29.983Z,15.68
2023-05-05T05:31:59.379Z,15.79
2023-05-05T05:34:26.007Z,15.92
2023-05-05T05:36:52.688Z,16.01
2023-05-05T05:39:19.371Z,16.12
2023-05-05T05:41:45.818Z,16.21
2023-05-05T05:44:12.549Z,16.19
2023-05-05T05:46:39.199Z,16.17
2023-05-05T05:49:06.002Z,16.22
2023-05-05T05:51:32.523Z,16.21
2023-05-05T05:53:59.104Z,16.22
2023-05-05T05:56:25.942Z,16.38
2023-05-05T05:58:52.922Z,16.41
2023-05-05T06:01:19.766Z,16.56
2023-05-05T06:03:46.959Z,16.67
2023-05-05T06:06:13.576Z,16.75
2023-05-05T06:08:40.114Z,16.86
2023-05-05T06:11:06.736Z,17.00
2023-05-05T06:13:34.075Z,17.17
2023-05-05T06:16:00.758Z,17.08
2023-05-05T06:18:27.685Z,17.14
2023-05-05T06:20:54.124Z,17.06
2023-05-05T06:23:25.103Z,17.14
2023-05-05T06:25:57.111Z,17.26
2023-05-05T06:28:23.627Z,17.22
2023-05-05T06:30:50.005Z,17.12
2023-05-05T06:33:16.505Z,17.13
2023-05-05T06:35:42.927Z,17.02
2023-05-05T06:38:09.771Z,16.97
2023-05-05T06:40:36.275Z,16.98
2023-05-05T06:43:02.729Z,17.03
2023-05-05T06:45:34.956Z,17.03
2023-05-05T06:48:01.513Z,17.11
2023-05-05T06:50:28.261Z,17.10
2023-05-05T06:52:54.720Z,17.11
2023-05-05T06:55:21.467Z,17.09
2023-05-05T06:57:48.858Z,17.17
2023-05-05T07:00:16.838Z,17.03
2023-05-05T07:02:43.494Z,17.09
2023-05-05T07:05:10.426Z,17.13
2023-05-05T07:07:37.136Z,17.21
2023-05-05T07:10:03.790Z,17.08
2023-05-05T07:12:33.213Z,17.21
2023-05-05T07:15:00.702Z,17.20
2023-05-05T07:17:29.604Z,17.02
2023-05-05T07:19:56.064Z,16.99
2023-05-05T07:22:22.544Z,16.99
2023-05-05T07:24:49.811Z,17.07
2023-05-05T07:27:17.748Z,17.11
2023-05-05T07:29:44.232Z,17.22
2023-05-05T07:32:10.825Z,17.34
2023-05-05T07:34:37.982Z,17.16
2023-05-05T07:37:05.106Z,17.21
2023-05-05T07:39:32.022Z,17.13
2023-05-05T07:41:58.593Z,17.15
2023-05-05T07:44:25.600Z,16.99
2023-05-05T07:46:52.018Z,16.95
2023-05-05T07:49:19.580Z,17.16
2023-05-05T07:51:46.274Z,17.33
2023-05-05T07:54:12.755Z,17.37
2023-05-05T07:56:39.246Z,17.27
2023-05-05T07:59:05.849Z,17.22
2023-05-05T08:01:32.325Z,17.17
2023-05-05T08:03:58.886Z,17.00
2023-05-05T08:06:27.708Z,16.85
2023-05-05T08:08:55.233Z,16.85
2023-05-05T08:11:22.055Z,17.12
2023-05-05T08:13:48.850Z,17.28
2023-05-05T08:16:15.682Z,17.45
2023-05-05T08:18:42.939Z,17.35
2023-05-05T08:21:10.198Z,17.23
2023-05-05T08:23:37.707Z,17.39
2023-05-05T08:26:11.889Z,17.59
2023-05-05T08:28:38.361Z,17.67
2023-05-05T08:31:06.492Z,17.83
2023-05-05T08:33:32.952Z,18.00
2023-05-05T08:35:59.415Z,17.69
2023-05-05T08:38:25.895Z,17.63
2023-05-05T08:40:52.886Z,17.88
2023-05-05T08:43:22.631Z,17.75
2023-05-05T08:45:49.766Z,17.86
2023-05-05T08:48:19.374Z,17.80
2023-05-05T08:50:51.515Z,17.83
2023-05-05T08:53:44.184Z,17.89
2023-05-05T08:56:14.509Z,17.96
2023-05-05T08:58:42.897Z,18.09
2023-05-05T09:01:10.692Z,17.95
2023-05-05T09:03:38.655Z,18.13
2023-05-05T09:06:05.764Z,18.40
2023-05-05T09:08:33.270Z,18.45
2023-05-05T09:11:02.087Z,18.21
2023-05-05T09:13:31.010Z,18.43
2023-05-05T09:16:00.428Z,18.33
2023-05-05T09:18:27.130Z,18.37
2023-05-05T09:20:53.564Z,18.23
2023-05-05T09:23:21.372Z,18.41
2023-05-05T09:26:04.291Z,18.32
2023-05-05T09:28:31.332Z,18.32
2023-05-05T09:31:12.661Z,18.17
2023-05-05T09:33:39.288Z,18.46
2023-05-05T09:36:06.158Z,18.89
2023-05-05T09:38:33.032Z,19.16
2023-05-05T09:40:59.441Z,19.33
2023-05-05T09:43:26.066Z,19.27
2023-05-05T09:46:07.352Z,19.28
2023-05-05T09:48:33.897Z,19.04
2023-05-05T09:51:00.666Z,18.89
2023-05-05T09:53:37.666Z,18.68
2023-05-05T09:56:04.362Z,18.26
2023-05-05T09:58:31.301Z,18.11
2023-05-05T10:00:58.836Z,17.92
2023-05-05T10:03:26.084Z,17.73
2023-05-05T10:05:55.683Z,17.48
2023-05-05T10:08:25.021Z,17.41
2023-05-05T10:10:56.553Z,17.59
2023-05-05T10:13:24.907Z,17.66
2023-05-05T10:15:56.553Z,17.88
2023-05-05T10:18:25.138Z,17.87
2023-05-05T10:21:04.329Z,17.86
2023-05-05T10:23:48.753Z,17.68
2023-05-05T10:26:17.044Z,17.51
2023-05-05T10:29:01.342Z,17.48
2023-05-05T10:31:36.276Z,17.50
2023-05-05T10:34:26.997Z,17.33
2023-05-05T10:36:55.092Z,17.32
2023-05-05T10:39:23.541Z,17.40
2023-05-05T10:41:51.601Z,17.55
2023-05-05T10:44:18.219Z,17.83
2023-05-05T10:46:45.126Z,17.75
2023-05-05T10:49:25.063Z,17.74
2023-05-05T10:52:00.751Z,17.92
2023-05-05T10:54:38.251Z,18.06
2023-05-05T10:57:07.072Z,18.15
2023-05-05T10:59:36.704Z,18.13
2023-05-05T11:02:21.375Z,18.31
2023-05-05T11:05:07.107Z,18.72
2023-05-05T11:07:34.431Z,19.30
2023-05-05T11:10:03.291Z,19.43
2023-05-05T11:12:32.199Z,19.62
2023-05-05T11:15:33.509Z,19.48
2023-05-05T11:18:07.003Z,19.85
2023-05-05T11:20:37.583Z,19.93
2023-05-05T11:23:04.313Z,20.39
2023-05-05T11:25:37.886Z,20.58
2023-05-05T11:28:11.125Z,20.83
2023-05-05T11:30:56.129Z,21.20
2023-05-05T11:33:29.113Z,20.90
2023-05-05T11:36:09.808Z,21.39
2023-05-05T11:38:36.267Z,21.50
2023-05-05T11:41:12.690Z,21.61
2023-05-05T11:43:40.021Z,21.82
2023-05-05T11:46:16.761Z,21.36
2023-05-05T11:48:46.679Z,21.36
2023-05-05T11:51:17.318Z,21.47
2023-05-05T11:53:44.521Z,21.62
2023-05-05T11:56:12.590Z,21.99
2023-05-05T11:58:39.233Z,21.90
2023-05-05T12:01:08.950Z,22.09
2023-05-05T12:03:36.889Z,21.95
2023-05-05T12:06:04.562Z,21.36
2023-05-05T12:08:37.684Z,21.26
2023-05-05T12:11:06.500Z,21.49
2023-05-05T12:13:33.085Z,21.56
2023-05-05T12:16:09.466Z,21.94
2023-05-05T12:18:36.028Z,21.98
2023-05-05T12:21:12.526Z,21.78
2023-05-05T12:23:39.137Z,21.43
2023-05-05T12:26:05.660Z,21.86
2023-05-05T12:28:46.414Z,22.10
2023-05-05T12:31:13.409Z,22.68
2023-05-05T12:33:41.132Z,22.91
2023-05-05T12:36:08.738Z,22.32
2023-05-05T12:38:36.124Z,21.51
2023-05-05T12:41:02.655Z,21.95
2023-05-05T12:43:34.146Z,22.38
2023-05-05T12:46:06.296Z,22.69
2023-05-05T12:48:34.133Z,22.71
2023-05-05T12:51:21.052Z,22.57
2023-05-05T12:53:48.492Z,22.09
2023-05-05T12:56:34.009Z,22.07
2023-05-05T12:59:05.748Z,22.21
2023-05-05T13:01:32.981Z,22.39
2023-05-05T13:04:14.993Z,22.57
2023-05-05T13:06:46.469Z,22.60
2023-05-05T13:09:24.051Z,22.61
2023-05-05T13:11:50.667Z,22.41
2023-05-05T13:14:17.150Z,22.15
2023-05-05T13:16:43.686Z,21.42
2023-05-05T13:19:10.107Z,21.57
2023-05-05T13:21:36.640Z,21.54
2023-05-05T13:24:18.343Z,21.42
2023-05-05T13:26:51.380Z,21.47
2023-05-05T13:29:18.670Z,21.33
2023-05-05T13:31:45.804Z,21.64
2023-05-05T13:34:12.401Z,21.63
2023-05-05T13:36:38.834Z,21.42
2023-05-05T13:39:05.318Z,21.32
2023-05-05T13:41:31.725Z,21.31
2023-05-05T13:43:58.158Z,21.22
2023-05-05T13:46:24.678Z,21.31
2023-05-05T13:48:56.069Z,21.14
2023-05-05T13:51:22.985Z,21.15
2023-05-05T13:53:49.609Z,21.00
2023-05-05T13:56:17.760Z,20.88
2023-05-05T13:58:44.208Z,20.70
2023-05-05T14:01:10.978Z,20.51
2023-05-05T14:03:39.460Z,20.57
2023-05-05T14:06:06.890Z,20.48
2023-05-05T14:08:33.543Z,20.85
2023-05-05T14:11:00.005Z,20.73
2023-05-05T14:13:26.639Z,20.82
2023-05-05T14:15:53.713Z,21.01
2023-05-05T14:18:20.752Z,21.26
2023-05-05T14:20:47.250Z,21.46
2023-05-05T14:23:13.664Z,22.07
2023-05-05T14:25:40.129Z,21.96
2023-05-05T14:28:07.141Z,21.63
2023-05-05T14:30:33.718Z,21.73
2023-05-05T14:33:01.268Z,21.98
2023-05-05T14:35:27.909Z,22.00
2023-05-05T14:37:54.322Z,21.91
2023-05-05T14:40:20.874Z,21.47
2023-05-05T14:42:47.301Z,21.32
2023-05-05T14:45:13.826Z,21.35
2023-05-05T14:47:40.351Z,21.11
2023-05-05T14:50:09.624Z,21.06
2023-05-05T14:52:40.214Z,20.90
2023-05-05T14:55:07.997Z,20.80
2023-05-05T14:57:34.780Z,20.61
2023-05-05T15:00:01.394Z,20.62
2023-05-05T15:02:27.894Z,20.57
2023-05-05T15:04:54.415Z,20.26
2023-05-05T15:07:22.513Z,20.21
2023-05-05T15:09:48.987Z,20.01
2023-05-05T15:12:15.493Z,19.95
2023-05-05T15:14:42.178Z,19.84
2023-05-05T15:17:08.644Z,19.52
2023-05-05T15:19:35.066Z,19.66
2023-05-05T15:22:01.544Z,19.70
2023-05-05T15:24:28.118Z,19.62
2023-05-05T15:26:54.647Z,19.40
2023-05-05T15:29:21.444Z,19.39
2023-05-05T15:31:47.915Z,19.26
2023-05-05T15:34:14.468Z,19.03
2023-05-05T15:36:40.879Z,18.67
2023-05-05T15:39:07.365Z,18.24
2023-05-05T15:41:34.224Z,17.92
2023-05-05T15:44:02.032Z,17.61
2023-05-05T15:46:31.638Z,17.47
2023-05-05T15:48:58.151Z,17.01
2023-05-05T15:51:24.614Z,16.49
2023-05-05T15:53:52.310Z,16.25
2023-05-05T15:56:19.160Z,16.05
2023-05-05T15:58:45.691Z,15.97
2023-05-05T16:01:12.294Z,15.90
2023-05-05T16:03:38.787Z,15.71
2023-05-05T16:06:05.402Z,15.72
2023-05-05T16:08:32.066Z,15.94
2023-05-05T16:10:58.483Z,16.17
2023-05-05T16:13:24.914Z,16.28
2023-05-05T16:15:51.393Z,16.23
2023-05-05T16:18:17.843Z,15.91
2023-05-05T16:20:44.426Z,15.84
2023-05-05T16:23:10.969Z,15.65
2023-05-05T16:25:37.694Z,15.52
2023-05-05T16:28:04.476Z,15.47
2023-05-05T16:30:30.988Z,15.66
2023-05-05T16:32:57.591Z,15.61
2023-05-05T16:35:24.021Z,15.57
2023-05-05T16:37:50.535Z,15.54
2023-05-05T16:40:17.104Z,15.45
2023-05-05T16:42:44.561Z,15.48
2023-05-05T16:45:11.668Z,15.36
2023-05-05T16:47:38.347Z,15.47
2023-05-05T16:50:05.519Z,15.75
2023-05-05T16:52:31.966Z,15.94
2023-05-05T16:54:58.502Z,16.18
2023-05-05T16:57:25.010Z,16.17
2023-05-05T16:59:54.465Z,16.03
2023-05-05T17:02:21.105Z,15.98
2023-05-05T17:04:47.634Z,16.18
2023-05-05T17:07:14.143Z,16.07
2023-05-05T17:09:40.594Z,16.05
2023-05-05T17:12:07.230Z,16.17
2023-05-05T17:14:33.815Z,15.86
2023-05-05T17:17:00.315Z,15.59
2023-05-05T17:19:26.725Z,15.74
2023-05-05T17:21:54.203Z,15.89
2023-05-05T17:24:21.022Z,15.85
2023-05-05T17:26:47.544Z,15.70
2023-05-05T17:29:15.222Z,15.64
2023-05-05T17:31:41.953Z,15.77
2023-05-05T17:34:08.507Z,15.66
2023-05-05T17:36:35.451Z,15.73
2023-05-05T17:39:02.040Z,15.71
2023-05-05T17:41:28.459Z,15.61
2023-05-05T17:43:55.670Z,15.54
2023-05-05T17:46:22.260Z,15.29
2023-05-05T17:48:48.828Z,15.33
2023-05-05T17:51:15.381Z,14.99
2023-05-05T17:53:41.874Z,14.99
2023-05-05T17:56:09.034Z,14.80
2023-05-05T17:58:35.794Z,14.90
2023-05-05T18:01:02.281Z,14.80
2023-05-05T18:03:28.895Z,14.68
2023-05-05T18:05:56.026Z,14.60
2023-05-05T18:08:22.566Z,14.63
2023-05-05T18:10:49.224Z,14.64
2023-05-05T18:13:15.869Z,14.66
2023-05-05T18:15:42.416Z,14.73
2023-05-05T18:18:08.967Z,14.66
2023-05-05T18:20:35.456Z,14.61
2023-05-05T18:23:01.909Z,14.46
2023-05-05T18:25:28.377Z,14.38
2023-05-05T18:27:54.839Z,14.45
2023-05-05T18:30:21.375Z,14.37
2023-05-05T18:32:48.653Z,14.41
2023-05-05T18:35:15.560Z,14.41
2023-05-05T18:37:42.201Z,14.49
2023-05-05T18:40:09.967Z,14.50
2023-05-05T18:42:36.539Z,14.55
2023-05-05T18:45:03.176Z,14.40
2023-05-05T18:47:29.697Z,14.40
2023-05-05T18:49:56.348Z,14.43
2023-05-05T18:52:22.916Z,14.25
2023-05-05T18:54:49.474Z,14.19
2023-05-05T18:57:16.183Z,14.09
2023-05-05T18:59:42.662Z,14.17
2023-05-05T19:02:09.115Z,14.26
2023-05-05T19:04:37.823Z,14.30
2023-05-05T19:07:04.758Z,14.24
2023-05-05T19:09:31.351Z,14.18
2023-05-05T19:11:57.875Z,14.17
2023-05-05T19:14:24.389Z,14.16
2023-05-05T19:16:51.227Z,14.13
2023-05-05T19:19:18.124Z,14.00
2023-05-05T19:21:44.638Z,14.03
2023-05-05T19:24:11.816Z,14.10
2023-05-05T19:26:40.814Z,14.14
2023-05-05T19:29:07.350Z,14.08
2023-05-05T19:31:33.868Z,14.13
2023-05-05T19:34:02.313Z,14.02
2023-05-05T19:36:31.598Z,14.05
2023-05-05T19:39:01.582Z,13.96
2023-05-05T19:41:28.982Z,14.06
2023-05-05T19:43:55.536Z,14.05
2023-05-05T19:46:24.172Z,13.93
2023-05-05T19:48:50.587Z,13.95
2023-05-05T19:51:17.040Z,13.94
2023-05-05T19:53:43.823Z,13.74
2023-05-05T19:56:10.401Z,13.88
2023-05-05T19:58:57.193Z,13.89
2023-05-05T20:01:24.175Z,13.89
2023-05-05T20:03:52.260Z,13.88
2023-05-05T20:06:18.738Z,13.97
2023-05-05T20:08:45.297Z,13.86
2023-05-05T20:11:12.110Z,13.91
2023-05-05T20:13:39.011Z,13.87
2023-05-05T20:16:06.196Z,13.93
2023-05-05T20:18:33.073Z,13.94
2023-05-05T20:20:59.880Z,13.97
2023-05-05T20:23:26.912Z,14.05
2023-05-05T20:25:54.474Z,14.02
2023-05-05T20:28:21.048Z,14.18
2023-05-05T20:30:47.543Z,14.11
2023-05-05T20:33:13.969Z,14.11
2023-05-05T20:35:40.518Z,14.07
2023-05-05T20:38:07.016Z,13.89
2023-05-05T20:40:33.572Z,13.97
2023-05-05T20:43:00.210Z,13.90
2023-05-05T20:45:26.746Z,13.81
2023-05-05T20:47:53.386Z,13.75
2023-05-05T20:50:22.564Z,13.62
2023-05-05T20:52:49.513Z,13.55
2023-05-05T20:55:16.215Z,13.50
2023-05-05T20:57:42.636Z,13.48
2023-05-05T21:00:09.667Z,13.39
2023-05-05T21:02:36.464Z,13.52
2023-05-05T21:05:03.270Z,13.63
2023-05-05T21:07:31.145Z,13.76
2023-05-05T21:09:57.719Z,13.87
2023-05-05T21:12:24.148Z,13.65
2023-05-05T21:14:50.620Z,13.67
2023-05-05T21:17:17.047Z,13.68
2023-05-05T21:19:43.456Z,13.49
2023-05-05T21:22:09.914Z,13.30
2023-05-05T21:24:38.131Z,13.50
2023-05-05T21:27:04.612Z,13.65
2023-05-05T21:29:37.334Z,13.70
2023-05-05T21:32:08.276Z,13.64
2023-05-05T21:34:35.185Z,13.46
2023-05-05T21:37:01.726Z,13.44
2023-05-05T21:39:29.224Z,13.46
2023-05-05T21:41:55.658Z,13.45
2023-05-05T21:44:22.266Z,13.53
2023-05-05T21:46:48.771Z,13.40
2023-05-05T21:49:16.767Z,13.37
2023-05-05T21:51:44.274Z,13.44
2023-05-05T21:54:11.316Z,13.56
2023-05-05T21:56:38.003Z,13.50
2023-05-05T21:59:05.528Z,13.33
2023-05-05T22:01:32.291Z,13.30
2023-05-05T22:03:59.045Z,13.20
2023-05-05T22:06:25.672Z,13.34
2023-05-05T22:08:52.132Z,13.53
2023-05-05T22:11:18.848Z,13.64
2023-05-05T22:13:46.420Z,13.70
2023-05-05T22:16:15.896Z,13.67
2023-05-05T22:18:42.315Z,13.64
2023-05-05T22:21:08.915Z,13.51
2023-05-05T22:23:37.039Z,13.53
2023-05-05T22:26:04.735Z,13.47
2023-05-05T22:28:31.201Z,13.29
2023-05-05T22:30:57.611Z,13.34
2023-05-05T22:33:24.343Z,13.21
2023-05-05T22:35:51.922Z,12.96
2023-05-05T22:38:18.514Z,12.92
2023-05-05T22:40:45.358Z,12.81
2023-05-05T22:43:11.957Z,12.82
2023-05-05T22:45:38.462Z,12.80
2023-05-05T22:48:05.439Z,12.81
2023-05-05T22:50:32.059Z,12.82
2023-05-05T22:52:58.566Z,12.94
2023-05-05T22:55:25.174Z,13.07
2023-05-05T22:57:52.515Z,13.08
2023-05-05T23:00:19.414Z,13.02
2023-05-05T23:02:45.926Z,12.80
2023-05-05T23:05:12.742Z,12.78
2023-05-05T23:07:39.335Z,12.76
2023-05-05T23:10:06.304Z,12.87
2023-05-05T23:12:33.033Z,12.75
2023-05-05T23:14:59.560Z,12.79
2023-05-05T23:17:26.087Z,12.74
2023-05-05T23:19:52.735Z,12.80
2023-05-05T23:22:19.165Z,12.78
2023-05-05T23:24:45.690Z,12.79
2023-05-05T23:27:13.159Z,12.87
2023-05-05T23:29:39.642Z,12.84
2023-05-05T23:32:06.326Z,12.74
2023-05-05T23:34:32.824Z,12.73
2023-05-05T23:36:59.424Z,12.75
2023-05-05T23:39:25.829Z,12.66
2023-05-05T23:41:52.347Z,12.64
2023-05-05T23:44:18.964Z,12.66
2023-05-05T23:46:45.402Z,12.60
2023-05-05T23:49:11.834Z,12.63
2023-05-05T23:51:38.292Z,12.65
2023-05-05T23:54:04.792Z,12.60
2023-05-05T23:56:31.263Z,12.55
2023-05-05T23:58:57.713Z,12.47
